Home > Products > Valid Products > TAF

000
FTUS44 KTSA 021400 AAB
TAFXNA
TAF AMD
KXNA 021402Z 0214/0312 15013KT P6SM -RA FEW060 FEW100 BKN120
      TEMPO 0214/0216 4SM -TSRA BKN030CB
     FM021700 21008KT P6SM BKN035 BKN100
     FM030200 16003KT P6SM BKN150=



000
FTUS44 KTSA 021400 AAB
TAFRVS
TAF AMD
KRVS 021400Z 0214/0312 19005KT P6SM -TSRA SCT035CB OVC110
      TEMPO 0214/0216 2SM TSRA BKN018CB
     FM021600 14010KT P6SM SCT040 BKN250
     FM022100 16010KT P6SM SCT050 BKN250
     FM030300 14006KT P6SM BKN250=



000
FTUS44 KTSA 021300 AAB
TAFTUL
TAF AMD
KTUL 021356Z 0214/0312 09008KT 4SM -TSRA BR BKN035CB BKN080 OVC110
      TEMPO 0214/0216 2SM TSRA BKN012CB
     FM021600 14010KT P6SM SCT040 BKN250
     FM022100 16012KT P6SM SCT050 BKN250
     FM030300 14008KT P6SM BKN250=



000
FTUS44 KTSA 021300 AAB
TAFFSM
TAF AMD
KFSM 021315Z 0213/0312 05005KT P6SM VCTS BKN030CB
      TEMPO 0213/0216 2SM -TSRA BKN020CB
     FM021600 21006KT P6SM SCT040 BKN080
     FM030200 07006KT P6SM BKN200=



000
FTUS44 KTSA 021300 AAB
TAFFYV
TAF AMD
KFYV 021314Z 0213/0312 VRB04KT P6SM -RA FEW011 BKN060 OVC080
      TEMPO 0213/0215 2SM TSRA BKN020CB
     FM021500 04008KT P6SM OVC025
     FM021700 21008KT P6SM BKN035 BKN100
     FM030200 16003KT P6SM BKN150=



000
FTUS44 KTSA 021300 AAA
TAFTUL
TAF AMD
KTUL 021312Z 0213/0312 01009KT 2SM +TSRA BR BKN028 OVC050CB
      TEMPO 0213/0216 VRB20G30KT 3/4SM TSRA BKN008CB
     FM021600 14010KT P6SM SCT040 BKN250
     FM022100 16012KT P6SM SCT050 BKN250
     FM030300 14008KT P6SM BKN250=



000
FTUS44 KTSA 021300 AAA
TAFRVS
TAF AMD
KRVS 021312Z 0213/0312 03007G31KT 2SM TSRA OVC025CB
      TEMPO 0213/0216 VRB20G30KT 1SM +TSRA BKN013CB
     FM021600 14010KT P6SM SCT040 BKN250
     FM022100 16010KT P6SM SCT050 BKN250
     FM030300 14006KT P6SM BKN250=



000
FTUS44 KTSA 021200 AAA
TAFFSM
TAF AMD
KFSM 021259Z 0213/0312 06008KT P6SM VCTS BKN030CB
      TEMPO 0214/0216 2SM -TSRA BKN020CB
     FM021600 21006KT P6SM SCT040 BKN080
     FM030200 07006KT P6SM BKN200=



000
FTUS44 KTSA 021200 AAA
TAFXNA
TAF AMD
KXNA 021241Z 0213/0312 10007KT 4SM -TSRA SCT015 BKN035CB
      TEMPO 0213/0216 1SM TSRA BKN015CB
     FM021700 21008KT P6SM BKN035 BKN100
     FM030200 16003KT P6SM BKN150=



000
FTUS44 KTSA 021200 AAA
TAFFYV
TAF AMD
KFYV 021238Z 0213/0312 32013G20KT 4SM -TSRA BKN025CB OVC040
      TEMPO 0213/0215 1SM TSRA BKN020CB
     FM021500 04008KT P6SM OVC025
      TEMPO 0215/0217 1SM TSRA BKN020CB
     FM021700 21008KT P6SM BKN035 BKN100
     FM030200 16003KT P6SM BKN150=



000
FTUS44 KTSA 021100
TAFMLC
TAF
KMLC 021125Z 0212/0312 18010G20KT P6SM SCT050 BKN120
     FM030200 15007KT P6SM BKN250=



000
FTUS44 KTSA 021100
TAFFYV
TAF
KFYV 021125Z 0212/0312 32013G20KT P6SM BKN025 OVC040
      TEMPO 0212/0214 1SM TSRA BKN020CB
     FM021400 04008KT P6SM OVC025
      TEMPO 0214/0216 1SM TSRA BKN020CB
     FM021700 21008KT P6SM BKN035 BKN100
     FM030200 16003KT P6SM BKN150=



000
FTUS44 KTSA 021100
TAFRVS
TAF
KRVS 021125Z 0212/0312 17013KT P6SM BKN035
      TEMPO 0212/0216 VRB20G30KT 2SM TSRA BKN025CB
     FM021600 14010KT P6SM SCT040 BKN250
     FM022100 16010KT P6SM SCT050 BKN250 PROB30 0221/0303 -TSRA
      BKN050CB
     FM030300 14006KT P6SM BKN250=



000
FTUS44 KTSA 021100
TAFFSM
TAF
KFSM 021125Z 0212/0312 06008KT P6SM SCT025 BKN250
     FM021600 21006KT P6SM SCT040 BKN080
     FM030200 07006KT P6SM BKN200=



000
FTUS44 KTSA 021100
TAFXNA
TAF
KXNA 021125Z 0212/0312 33013G20KT P6SM SCT007 OVC015
      TEMPO 0212/0214 1SM TSRA BKN010CB
     FM021400 04008KT P6SM SCT010 OVC020
      TEMPO 0214/0216 1SM TSRA BKN012CB
     FM021700 21008KT P6SM BKN035 BKN100
     FM030200 16003KT P6SM BKN150=



000
FTUS44 KTSA 021100
TAFTUL
TAF
KTUL 021125Z 0212/0312 07013KT P6SM BKN035
      TEMPO 0212/0216 VRB20G30KT 2SM TSRA BKN025CB
     FM021600 14010KT P6SM SCT040 BKN250
     FM022100 16012KT P6SM SCT050 BKN250 PROB30 0221/0303 -TSRA
      BKN050CB
     FM030300 14008KT P6SM BKN250=



000
FTUS44 KTSA 021000 AAA
TAFXNA
TAF AMD
KXNA 021017Z 0210/0306 06005KT P6SM BKN035
     FM021030 31010G20KT P6SM BKN025
      TEMPO 0211/0215 VRB15G30KT 1SM TSRA BKN020CB
     FM021600 20007KT P6SM SCT050 BKN150
     FM030000 15006KT P6SM SCT050 BKN250=



000
FTUS44 KTSA 020900 AAB
TAFFYV
TAF AMD
KFYV 020932Z 0210/0306 35006KT P6SM BKN025 OVC060
     FM021100 03006KT P6SM BKN025 OVC040
      TEMPO 0211/0215 3SM -TSRA BKN020CB
     FM021600 21008KT P6SM SCT040 BKN100
     FM030000 16003KT P6SM BKN250=



000
FTUS44 KTSA 020700 AAA
TAFFYV
TAF AMD
KFYV 020739Z 0208/0306 17006KT P6SM SCT050 BKN150
     FM021000 18007KT P6SM SCT040 BKN080
      TEMPO 0210/0214 3SM -TSRA BKN040CB
     FM030000 16003KT P6SM BKN250=



000
FTUS44 KTSA 020700 AAA
TAFRVS
TAF AMD
KRVS 020736Z 0208/0306 17007KT P6SM BKN060 OVC250
      TEMPO 0209/0212 VRB20G30KT 3SM -TSRA BKN040CB
     FM021200 16010KT P6SM SCT030 BKN120
     FM022100 16010KT P6SM SCT050 BKN250 PROB30 0221/0303 -TSRA
      BKN050CB=



000
FTUS44 KTSA 020700 AAA
TAFTUL
TAF AMD
KTUL 020734Z 0208/0306 18012KT P6SM BKN060 OVC250
      TEMPO 0209/0212 VRB20G30KT 3SM -TSRA BKN040CB
     FM021200 16010KT P6SM SCT030 BKN120
     FM022100 16010KT P6SM SCT050 BKN250 PROB30 0221/0303 -TSRA
      BKN050CB=



000
FTUS44 KTSA 020500
TAFFYV
TAF
KFYV 020520Z 0206/0306 18010KT P6SM VCTS SCT050CB BKN150
      TEMPO 0206/0210 VRB15G25KT 3SM -TSRA BKN025CB
     FM021000 18007KT P6SM BKN080
      TEMPO 0210/0214 P6SM -TSRA BKN050CB
     FM030000 16003KT P6SM BKN250=



000
FTUS44 KTSA 020500
TAFTUL
TAF
KTUL 020520Z 0206/0306 18012KT P6SM BKN060 OVC250
      TEMPO 0206/0210 VRB20G30KT 3SM -TSRA BKN040CB
     FM021000 16010KT P6SM OVC120
      TEMPO 0210/0214 VRB15G25KT 3SM -TSRA BKN040CB=



000
FTUS44 KTSA 020500
TAFMLC
TAF
KMLC 020520Z 0206/0306 17009KT P6SM SCT050 BKN250 PROB30 0215/0221
      5SM -TSRA BKN040CB
     FM030000 15007KT P6SM BKN250=



000
FTUS44 KTSA 020500
TAFFSM
TAF
KFSM 020520Z 0206/0306 12005KT P6SM BKN250
     FM021500 21006KT P6SM BKN080
     FM030000 15006KT P6SM BKN250=



000
FTUS44 KTSA 020500
TAFRVS
TAF
KRVS 020520Z 0206/0306 18007KT P6SM BKN060 OVC250
      TEMPO 0206/0209 VRB20G30KT 3SM -TSRA BKN040CB
     FM021000 16010KT P6SM OVC120
      TEMPO 0210/0214 VRB15G25KT 3SM -TSRA BKN040CB=



000
FTUS44 KTSA 020500
TAFXNA
TAF
KXNA 020520Z 0206/0306 18010KT P6SM VCTS SCT050CB BKN150
      TEMPO 0206/0210 VRB15G25KT 3SM -TSRA BKN025CB
     FM021000 18007KT P6SM BKN080
      TEMPO 0210/0214 P6SM -TSRA BKN050CB
     FM030000 16003KT P6SM BKN250=



000
FTUS44 KTSA 012300
TAFRVS
TAF
KRVS 012320Z 0200/0224 20013KT P6SM SCT060 BKN100
     FM020100 18012KT P6SM VCTS SCT050CB BKN250
      TEMPO 0202/0206 VRB15G30KT 5SM -TSRA BKN040CB
     FM020600 VRB06KT P6SM BKN060
     FM021500 16010KT P6SM OVC120=



000
FTUS44 KTSA 012300
TAFTUL
TAF
KTUL 012320Z 0200/0224 17019G25KT P6SM SCT070 BKN080 BKN250
     FM020100 18012KT P6SM VCTS SCT050CB BKN250
      TEMPO 0202/0206 VRB15G30KT 5SM -TSRA BKN040CB
     FM020600 VRB06KT P6SM BKN080
     FM021500 16010KT P6SM OVC120=



000
FTUS44 KTSA 012300
TAFFSM
TAF
KFSM 012320Z 0200/0224 19013G20KT P6SM SKC
     FM020200 12005KT P6SM BKN250 PROB30 0209/0215 6SM -TSRA
      BKN040CB
     FM021500 21006KT P6SM BKN080=



000
FTUS44 KTSA 012300
TAFMLC
TAF
KMLC 012320Z 0200/0224 15011G18KT P6SM SCT050
     FM020200 17009KT P6SM SCT050 BKN250 PROB30 0215/0221 5SM -TSRA
      BKN040CB=



000
FTUS44 KTSA 012300
TAFFYV
TAF
KFYV 012320Z 0200/0224 18016G24KT P6SM FEW040
     FM020200 18010KT P6SM VCTS SCT050CB BKN150
      TEMPO 0204/0208 VRB15G25KT 3SM -TSRA BKN025CB
     FM020900 18007KT P6SM BKN080
      TEMPO 0209/0212 P6SM -TSRA BKN050CB=



000
FTUS44 KTSA 012300
TAFXNA
TAF
KXNA 012320Z 0200/0224 18014KT P6SM FEW040
     FM020200 18010KT P6SM VCTS SCT050CB BKN150
      TEMPO 0204/0208 VRB15G25KT 3SM -TSRA BKN025CB
     FM020900 18007KT P6SM BKN080
      TEMPO 0209/0212 P6SM -TSRA BKN050CB=



000
FTUS44 KTSA 011700
TAFFYV
TAF
KFYV 011720Z 0118/0218 08007KT P6SM BKN035
     FM020200 18010KT P6SM VCTS SCT050CB BKN150
      TEMPO 0204/0208 VRB15G25KT 6SM -TSRA BKN025CB
     FM020900 18007KT P6SM BKN080=



000
FTUS44 KTSA 011700
TAFXNA
TAF
KXNA 011720Z 0118/0218 10014G20KT P6SM BKN025 OVC035
     FM020200 18010KT P6SM VCTS SCT050CB BKN150
      TEMPO 0204/0208 VRB15G25KT 6SM -TSRA BKN025CB
     FM020900 18007KT P6SM BKN080=



000
FTUS44 KTSA 011700
TAFFSM
TAF
KFSM 011720Z 0118/0218 12008KT P6SM BKN040
     FM020200 12005KT P6SM BKN250 PROB30 0209/0215 6SM -TSRA
      BKN040CB
     FM021500 21006KT P6SM BKN080=



000
FTUS44 KTSA 011700
TAFMLC
TAF
KMLC 011720Z 0118/0218 18010G15KT P6SM SCT040 SCT250
     FM020200 17009KT P6SM BKN250 PROB30 0215/0218 5SM -TSRA
      BKN040CB=



000
FTUS44 KTSA 011700
TAFTUL
TAF
KTUL 011720Z 0118/0218 14011KT P6SM BKN025
     FM020000 16011G19KT P6SM SCT035 BKN250
     FM020100 18012KT P6SM VCTS SCT050CB BKN250
      TEMPO 0202/0206 VRB15G30KT 5SM -TSRA BKN040CB
     FM020600 36007KT P6SM BKN080=



000
FTUS44 KTSA 011700
TAFRVS
TAF
KRVS 011720Z 0118/0218 17012G19KT P6SM BKN025
     FM020000 16011G19KT P6SM SCT035 BKN250
     FM020100 18012KT P6SM VCTS SCT050CB BKN250
      TEMPO 0202/0206 VRB15G30KT 5SM -TSRA BKN040CB
     FM020600 36007KT P6SM BKN060=



000
FTUS44 KTSA 011500 AAA
TAFRVS
TAF AMD
KRVS 011533Z 0116/0212 15012G19KT P6SM SCT040 BKN250
     FM020100 18012KT P6SM VCTS SCT050CB BKN250
      TEMPO 0202/0206 VRB15G30KT 5SM -TSRA BKN040CB
     FM020600 36007KT P6SM BKN080=



000
FTUS44 KTSA 011500 AAA
TAFFSM
TAF AMD
KFSM 011533Z 0116/0212 14007KT P6SM FEW025 BKN070
     FM020200 12005KT P6SM BKN250 PROB30 0206/0212 6SM -TSRA
      BKN040CB=



000
FTUS44 KTSA 011500 AAA
TAFXNA
TAF AMD
KXNA 011532Z 0116/0212 06008KT P6SM OVC025
     FM011800 19015G22KT P6SM SCT050 BKN250
     FM020200 18010KT P6SM VCTS SCT050CB BKN150
      TEMPO 0203/0207 VRB15G25KT 6SM -TSRA BKN025CB
     FM020800 18007KT P6SM BKN100=



000
FTUS44 KTSA 011500 AAA
TAFTUL
TAF AMD
KTUL 011532Z 0116/0212 11015G21KT P6SM SCT035 BKN250
     FM020100 18012KT P6SM VCTS SCT050CB BKN250
      TEMPO 0202/0206 VRB15G30KT 5SM -TSRA BKN040CB
     FM020600 36007KT P6SM BKN080=



000
FTUS44 KTSA 011500 AAA
TAFFYV
TAF AMD
KFYV 011531Z 0116/0212 VRB04KT P6SM BKN025
     FM011800 19015G22KT P6SM SCT050 BKN250
     FM020200 18010KT P6SM VCTS SCT050CB BKN150
      TEMPO 0203/0207 VRB15G25KT 6SM -TSRA BKN025CB
     FM020800 18007KT P6SM BKN100=



000
FTUS44 KTSA 011100
TAFFSM
TAF
KFSM 011122Z 0112/0212 20006KT P6SM SCT150
     FM011500 20012KT P6SM SCT050 SCT250
     FM020200 12005KT P6SM BKN250 PROB30 0206/0212 6SM -TSRA
      BKN040CB=



000
FTUS44 KTSA 011100
TAFRVS
TAF
KRVS 011122Z 0112/0212 08007KT P6SM VCSH BKN025 BKN250
     FM011400 12010KT P6SM BKN040 BKN250
     FM011600 18014G20KT P6SM SCT050 BKN250
     FM020100 18012KT P6SM VCTS SCT050CB BKN250
      TEMPO 0202/0206 VRB15G30KT 5SM -TSRA BKN040CB
     FM020600 36007KT P6SM BKN080=



000
FTUS44 KTSA 011100
TAFXNA
TAF
KXNA 011122Z 0112/0212 04012G18KT P6SM VCSH SCT025 BKN250
      TEMPO 0112/0115 VRB15G30KT 6SM -TSRA BKN025CB
     FM011500 15010KT P6SM SCT025 BKN250
     FM011800 19015G22KT P6SM SCT050 BKN250
     FM020200 18010KT P6SM VCTS SCT050CB BKN150
      TEMPO 0203/0207 VRB15G25KT 6SM -TSRA BKN025CB
     FM020800 18007KT P6SM BKN100=



000
FTUS44 KTSA 011100
TAFMLC
TAF
KMLC 011122Z 0112/0212 19012G18KT P6SM SCT250
     FM011600 18014G22KT P6SM SCT050 SCT250
     FM020200 17009KT P6SM BKN250=



000
FTUS44 KTSA 011100
TAFTUL
TAF
KTUL 011122Z 0112/0212 08010KT P6SM VCSH BKN025 BKN250
     FM011400 12010KT P6SM BKN040 BKN250
     FM011600 18015G25KT P6SM SCT050 BKN250
     FM020100 18012KT P6SM VCTS SCT050CB BKN250
      TEMPO 0202/0206 VRB15G30KT 5SM -TSRA BKN040CB
     FM020600 36007KT P6SM BKN080=



000
FTUS44 KTSA 011100
TAFFYV
TAF
KFYV 011122Z 0112/0212 36010KT P6SM VCSH SCT025 BKN250
      TEMPO 0112/0115 VRB15G30KT 6SM -TSRA BKN025CB
     FM011500 15010KT P6SM SCT025 BKN250
     FM011800 19015G22KT P6SM SCT050 BKN250
     FM020200 18010KT P6SM VCTS SCT050CB BKN150
      TEMPO 0203/0207 VRB15G25KT 6SM -TSRA BKN025CB
     FM020800 18007KT P6SM BKN100=



000
FTUS44 KTSA 011000 AAA
TAFFYV
TAF AMD
KFYV 011052Z 0111/0206 28008KT P6SM VCTS SCT025CB SCT250
      TEMPO 0111/0114 VRB15G30KT 6SM -TSRA BKN025CB
     FM011500 19015KT P6SM BKN150
     FM011800 19015G22KT P6SM SCT050 BKN250
     FM020200 18010KT P6SM SCT050 BKN100 PROB30 0204/0206 5SM -TSRA
      BKN050CB=



000
FTUS44 KTSA 011000 AAB
TAFXNA
TAF AMD
KXNA 011007Z 0110/0206 28006KT P6SM SCT025 BKN080
      TEMPO 0110/0114 VRB15G30KT 6SM -TSRA BKN025CB
     FM011500 19015KT P6SM BKN150
     FM011800 19015G22KT P6SM SCT050 BKN250
     FM020200 18010KT P6SM SCT050 BKN100 PROB30 0204/0206 5SM -TSRA
      BKN050CB=



000
FTUS44 KTSA 011000 AAB
TAFRVS
TAF AMD
KRVS 011006Z 0110/0206 36012KT P6SM SCT025 BKN250
      TEMPO 0110/0114 BKN025
     FM011400 20015G23KT P6SM SCT050 BKN250
     FM020200 18012KT P6SM SCT050 BKN100=



000
FTUS44 KTSA 010900 AAA
TAFXNA
TAF AMD
KXNA 010924Z 0109/0206 19010KT P6SM BKN080
      TEMPO 0111/0113 VRB15G30KT 6SM -TSRA BKN040CB
     FM011500 19015KT P6SM BKN150
     FM011800 19015G22KT P6SM SCT050 BKN250
     FM020200 18010KT P6SM SCT050 BKN100 PROB30 0204/0206 5SM -TSRA
      BKN050CB=



000
FTUS44 KTSA 010900 AAA
TAFRVS
TAF AMD
KRVS 010923Z 0109/0206 36012KT P6SM SCT025 BKN250
     FM011400 20015G23KT P6SM SCT050 BKN250
     FM020200 18012KT P6SM SCT050 BKN100=



000
FTUS44 KTSA 010900 AAA
TAFTUL
TAF AMD
KTUL 010922Z 0109/0206 36012G20KT P6SM VCTS BKN025CB BKN250
     FM011200 18018G26KT P6SM SCT050 BKN250
     FM020200 18015KT P6SM SCT050 BKN100=



000
FTUS44 KTSA 010500
TAFTUL
TAF
KTUL 010520Z 0106/0206 17016G27KT P6SM FEW250
     FM011600 18018G26KT P6SM SCT050 BKN250
     FM020200 18015KT P6SM SCT050 BKN100=



000
FTUS44 KTSA 010500
TAFRVS
TAF
KRVS 010520Z 0106/0206 17014G20KT P6SM SKC
     FM011600 20015G23KT P6SM SCT050 BKN250
     FM020200 18012KT P6SM SCT050 BKN100=



000
FTUS44 KTSA 010500
TAFFSM
TAF
KFSM 010520Z 0106/0206 00000KT P6SM SKC
     FM011500 20012KT P6SM BKN150
     FM011800 19012KT P6SM SCT050
     FM020200 14008KT P6SM BKN250=



000
FTUS44 KTSA 010500
TAFFYV
TAF
KFYV 010520Z 0106/0206 17010KT P6SM SCT250
     FM011500 19015KT P6SM BKN150
     FM011800 19015G22KT P6SM SCT050 BKN250
     FM020200 18010KT P6SM SCT050 BKN100 PROB30 0204/0206 5SM -TSRA
      BKN050CB=



000
FTUS44 KTSA 010500
TAFXNA
TAF
KXNA 010520Z 0106/0206 17014KT P6SM SKC
     FM011500 19015KT P6SM BKN150
     FM011800 19015G22KT P6SM SCT050 BKN250
     FM020200 18010KT P6SM SCT050 BKN100 PROB30 0204/0206 5SM -TSRA
      BKN050CB=



000
FTUS44 KTSA 010500
TAFMLC
TAF
KMLC 010520Z 0106/0206 17008KT P6SM SKC
     FM011200 18013KT P6SM SCT250
     FM011600 18014G22KT P6SM SCT050 BKN250
     FM020200 17009KT P6SM BKN250=



000
FTUS44 KTSA 312300
TAFMLC
TAF
KMLC 312326Z 0100/0124 17010G16KT P6SM SKC
     FM010200 17007KT P6SM SKC
     FM011200 18013KT P6SM SCT250
     FM011600 18014G22KT P6SM SCT050=



000
FTUS44 KTSA 312300
TAFFSM
TAF
KFSM 312326Z 0100/0124 16011KT P6SM FEW050
     FM010600 10005KT P6SM SCT150
     FM011500 20012KT P6SM BKN150
     FM011800 19012KT P6SM SCT050=



000
FTUS44 KTSA 312300
TAFFYV
TAF
KFYV 312326Z 0100/0124 17011G18KT P6SM SCT040
     FM010100 17009KT P6SM SCT250
     FM011500 19015KT P6SM BKN150
     FM011800 19015G22KT P6SM SCT050 BKN250=



000
FTUS44 KTSA 312300
TAFTUL
TAF
KTUL 312326Z 0100/0124 17018G26KT P6SM FEW060
     FM010200 16015KT P6SM SCT250
     FM011600 18018G26KT P6SM SCT050=



000
FTUS44 KTSA 312300
TAFRVS
TAF
KRVS 312326Z 0100/0124 19012KT P6SM FEW070
     FM010200 17010KT P6SM SCT250
     FM011600 20015G23KT P6SM SCT050=



000
FTUS44 KTSA 312300
TAFXNA
TAF
KXNA 312326Z 0100/0124 19014G20KT P6SM SCT040
     FM010100 17009KT P6SM SCT250
     FM011500 19015KT P6SM BKN150
     FM011800 19015G22KT P6SM SCT050 BKN250=



000
FTUS44 KTSA 311700
TAFRVS
TAF
KRVS 311738Z 3118/0118 19012G20KT P6SM FEW045
     FM010100 17010KT P6SM SCT250
     FM011500 20015KT P6SM BKN150=



000
FTUS44 KTSA 311700
TAFTUL
TAF
KTUL 311738Z 3118/0118 17015G23KT P6SM FEW050 FEW150
     FM010600 16015KT P6SM BKN150=



000
FTUS44 KTSA 311700
TAFFSM
TAF
KFSM 311738Z 3118/0118 19011KT P6SM BKN035 BKN045
     FM010000 16008KT P6SM SCT250
     FM010600 10005KT P6SM SCT150
     FM011500 20012KT P6SM BKN150=



000
FTUS44 KTSA 311700
TAFFYV
TAF
KFYV 311738Z 3118/0118 19011KT P6SM SCT035 BKN045
     FM010100 17009KT P6SM SCT250
     FM011500 20015KT P6SM BKN150=



000
FTUS44 KTSA 311700
TAFXNA
TAF
KXNA 311738Z 3118/0118 21011KT P6SM SCT035 BKN045
     FM010100 17010KT P6SM SCT250
     FM011500 20019KT P6SM BKN250=



000
FTUS44 KTSA 311700
TAFMLC
TAF
KMLC 311738Z 3118/0118 19010G16KT P6SM SCT250
     FM011200 18013KT P6SM BKN150=



000
FTUS44 KTSA 311500 AAB
TAFMLC
TAF AMD
KMLC 311514Z 3115/0112 17010G17KT P6SM FEW050 SCT250
     FM010000 17008KT P6SM SCT250=



000
FTUS44 KTSA 311400 AAA
TAFMLC
TAF AMD
KMLC 311402Z 3114/0112 18009G14KT P6SM BKN008
     FM311600 20011G17KT P6SM FEW050 SCT250
     FM010000 17008KT P6SM SCT250=



000
FTUS44 KTSA 311100
TAFXNA
TAF
KXNA 311129Z 3112/0112 18004KT P6SM SKC
     FM311600 18010KT P6SM SCT050 SCT250=



000
FTUS44 KTSA 311100
TAFFSM
TAF
KFSM 311129Z 3112/0112 06005KT P6SM SKC
     FM311500 11006KT P6SM SKC
     FM311700 17008KT P6SM SCT050 SCT250
     FM010300 10005KT P6SM SCT250=



000
FTUS44 KTSA 311100
TAFMLC
TAF
KMLC 311129Z 3112/0112 19005KT P6SM SCT070
     FM311600 20011G17KT P6SM FEW050 SCT250
     FM010000 17008KT P6SM SCT250=



000
FTUS44 KTSA 311100
TAFFYV
TAF
KFYV 311129Z 3112/0112 18004KT P6SM SKC
     FM311600 18010KT P6SM SCT050 SCT250=



000
FTUS44 KTSA 311100
TAFRVS
TAF
KRVS 311129Z 3112/0112 17007KT P6SM FEW150
     FM311700 18015G25KT P6SM FEW050 SCT250
     FM010000 17010KT P6SM SCT250=



000
FTUS44 KTSA 311100
TAFTUL
TAF
KTUL 311129Z 3112/0112 17012KT P6SM FEW150
     FM311600 18015G25KT P6SM FEW050 SCT250
     FM010100 17015KT P6SM SCT250=



000
FTUS44 KTSA 310700 AAA
TAFFSM
TAF AMD
KFSM 310707Z 3107/0106 04004KT P6SM SCT250
      TEMPO 3109/3112 4SM BR
     FM311600 17006KT P6SM FEW250
     FM311800 17008KT P6SM FEW040 SCT250=



000
FTUS44 KTSA 310500
TAFRVS
TAF
KRVS 310520Z 3106/0106 16004KT P6SM SKC
     FM311400 17006KT P6SM SCT250
     FM311700 19012G20KT P6SM FEW040 SCT250
     FM312000 18014G24KT P6SM SCT040 SCT250=



000
FTUS44 KTSA 310500
TAFXNA
TAF
KXNA 310520Z 3106/0106 18007KT P6SM SKC
      TEMPO 3109/3113 4SM BR
     FM311400 19006KT P6SM SCT250
     FM311700 19010KT P6SM FEW040 SCT250=



000
FTUS44 KTSA 310500
TAFTUL
TAF
KTUL 310520Z 3106/0106 16007KT P6SM SKC
     FM311400 17009KT P6SM SCT250
     FM311700 18015G22KT P6SM FEW040 SCT250
     FM312000 18017G25KT P6SM SCT040 SCT250=



000
FTUS44 KTSA 310500
TAFFYV
TAF
KFYV 310520Z 3106/0106 00000KT P6SM SKC
      TEMPO 3109/3113 4SM BR
     FM311400 19006KT P6SM SCT250
     FM311700 19010KT P6SM FEW040 SCT250=



000
FTUS44 KTSA 310500
TAFFSM
TAF
KFSM 310520Z 3106/0106 12004KT P6SM SKC
     FM310700 08003KT 5SM BR SCT250
     FM311600 17006KT P6SM FEW250
     FM311800 17008KT P6SM FEW040 SCT250=



000
FTUS44 KTSA 310500
TAFMLC
TAF
KMLC 310520Z 3106/0106 19005KT P6SM SKC
     FM311400 19008KT P6SM FEW250
     FM311700 20011G17KT P6SM FEW040 SCT250
     FM010200 17008KT P6SM SCT250=



000
FTUS44 KTSA 302300
TAFMLC
TAF
KMLC 302333Z 3100/3124 22006KT P6SM FEW090
     FM310200 16004KT P6SM SKC
     FM311400 19008KT P6SM FEW250
     FM311700 20011G17KT P6SM FEW040 SCT250=



000
FTUS44 KTSA 302300
TAFXNA
TAF
KXNA 302333Z 3100/3124 09004KT P6SM BKN040
     FM310200 16003KT P6SM FEW250
     FM310500 19002KT 5SM BR SCT250
     FM311400 19006KT P6SM SCT250
     FM311700 19010KT P6SM FEW040 SCT250=



000
FTUS44 KTSA 302300
TAFFYV
TAF
KFYV 302333Z 3100/3124 19005KT P6SM BKN250
     FM310200 16003KT P6SM FEW250
     FM310500 19002KT 5SM BR SCT250
     FM311400 19006KT P6SM SCT250
     FM311700 19010KT P6SM FEW040 SCT250=



000
FTUS44 KTSA 302300
TAFFSM
TAF
KFSM 302333Z 3100/3124 16005KT P6SM FEW250
     FM310700 08003KT 5SM BR SCT250
     FM311600 17006KT P6SM FEW250
     FM311800 17008KT P6SM FEW040 SCT250=



000
FTUS44 KTSA 302300
TAFRVS
TAF
KRVS 302333Z 3100/3124 15009KT P6SM FEW070
     FM310200 18002KT P6SM SKC
     FM311400 17006KT P6SM SCT250
     FM311700 19012G20KT P6SM FEW040 SCT250=



000
FTUS44 KTSA 302300
TAFTUL
TAF
KTUL 302333Z 3100/3124 12011KT P6SM FEW070 FEW250
     FM310200 17006KT P6SM SKC
     FM311400 17009KT P6SM SCT250
     FM311700 18015G22KT P6SM FEW040 SCT250=



000
FTUS44 KTSA 302000 AAC
TAFMLC
TAF AMD
KMLC 302021Z 3020/3118 18006KT P6SM SCT050
      TEMPO 3020/3022 29015G30KT 2SM TSRA BKN030CB
     FM310000 17005KT P6SM FEW250
     FM311400 19006KT P6SM FEW250
     FM311700 20011G17KT P6SM FEW040=



000
FTUS44 KTSA 302000 AAB
TAFMLC
TAF AMD
KMLC 302007Z 3020/3118 23005KT P6SM SCT050
      TEMPO 3020/3022 4SM TSRA BKN030CB
     FM310000 17005KT P6SM FEW250
     FM311400 19006KT P6SM FEW250
     FM311700 20011G17KT P6SM FEW040=



000
FTUS44 KTSA 301800 AAA
TAFMLC
TAF AMD
KMLC 301847Z 3019/3118 23005KT P6SM SCT030
      TEMPO 3021/3023 5SM TSRA BKN025CB
     FM310000 17005KT P6SM FEW250
     FM311400 19006KT P6SM FEW250
     FM311700 20011G17KT P6SM FEW040=



000
FTUS44 KTSA 301700
TAFMLC
TAF
KMLC 301725Z 3018/3118 22005KT P6SM SCT030
     FM301900 23005KT P6SM VCSH SCT030
     FM310000 17005KT P6SM FEW250
     FM311400 19006KT P6SM FEW250
     FM311700 20011G17KT P6SM FEW040=



000
FTUS44 KTSA 301700
TAFXNA
TAF
KXNA 301725Z 3018/3118 20008KT P6SM BKN030
     FM310000 16005KT P6SM SCT250
     FM310800 20002KT 5SM BR SCT250
     FM311500 19007KT P6SM FEW250=



000
FTUS44 KTSA 301700
TAFRVS
TAF
KRVS 301725Z 3018/3118 22003KT P6SM SCT040
     FM310000 13005KT P6SM FEW250
     FM310700 00000KT P6SM FEW250
     FM311400 17006KT P6SM SCT250
     FM311700 19010KT P6SM FEW040 SCT250=



000
FTUS44 KTSA 301700
TAFFSM
TAF
KFSM 301725Z 3018/3118 18006KT P6SM BKN030 BKN080
      TEMPO 3018/3021 4SM TSRA OVC020CB
     FM302100 14007KT P6SM SCT020 BKN080
     FM310000 13006KT P6SM SCT080 SCT250
     FM310200 15003KT P6SM SCT250
     FM310700 08002KT 5SM BR SCT250
     FM311600 17006KT P6SM FEW250=



000
FTUS44 KTSA 301700
TAFTUL
TAF
KTUL 301725Z 3018/3118 24005KT P6SM SCT040
     FM310000 15006KT P6SM FEW250
     FM311400 17009KT P6SM SCT250
     FM311700 18013G19KT P6SM FEW040 SCT250=



000
FTUS44 KTSA 301700
TAFFYV
TAF
KFYV 301725Z 3018/3118 22007KT P6SM VCSH BKN030 BKN080
     FM302000 20007KT P6SM VCTS BKN040CB BKN100
     FM310100 16003KT P6SM SCT100 SCT250
     FM310500 19002KT 5SM BR SCT250
     FM311400 19006KT P6SM SCT250=



000
FTUS44 KTSA 301500 AAA
TAFTUL
TAF AMD
KTUL 301515Z 3015/3112 18007KT P6SM SCT040=



000
FTUS44 KTSA 301500 AAA
TAFRVS
TAF AMD
KRVS 301514Z 3015/3112 18005KT P6SM SCT040 SCT070=



000
FTUS44 KTSA 301500 AAB
TAFFYV
TAF AMD
KFYV 301513Z 3015/3112 20007KT P6SM VCSH BKN020 BKN060
     FM301800 20010KT P6SM VCTS SCT040CB BKN070
     FM310100 17003KT P6SM SCT250
     FM310700 00000KT 3SM BR FEW250
      TEMPO 3108/3112 1SM BR SCT005=



000
FTUS44 KTSA 301500 AAC
TAFXNA
TAF AMD
KXNA 301512Z 3015/3112 20011KT P6SM BKN025 BKN070
     FM301800 20009KT P6SM VCTS SCT040CB SCT250
     FM310100 17003KT P6SM SCT250
     FM310700 00000KT 3SM BR FEW250
      TEMPO 3108/3112 1SM BR SCT005=



000
FTUS44 KTSA 301500 AAC
TAFFSM
TAF AMD
KFSM 301511Z 3015/3112 12006KT P6SM SCT040 BKN060
     FM301700 13007KT P6SM VCTS SCT040CB BKN060
     FM310100 VRB03KT P6SM SCT250
     FM310900 VRB03KT 4SM BR SCT005 SCT250=



000
FTUS44 KTSA 301400 AAB
TAFXNA
TAF AMD
KXNA 301423Z 3014/3112 19009KT P6SM VCSH BKN030 BKN060
     FM301600 20007KT P6SM SCT040 SCT250
     FM301900 20009KT P6SM VCTS SCT040CB SCT250
     FM310100 17003KT P6SM SCT250
     FM310700 00000KT 3SM BR FEW250
      TEMPO 3108/3112 1SM BR SCT005=



000
FTUS44 KTSA 301400 AAB
TAFFSM
TAF AMD
KFSM 301420Z 3014/3112 10005KT P6SM BKN060
      TEMPO 3015/3017 6SM -TSRA BKN020CB
     FM301700 13005KT P6SM SCT040 SCT250
     FM301900 13007KT P6SM VCTS SCT040CB SCT250
     FM310100 VRB03KT P6SM SCT250
     FM310900 VRB03KT 4SM BR SCT005 SCT250=



    US Dept of Commerce
    National Oceanic and Atmospheric Administration
    National Weather Service
    1325 East West Highway
    Silver Spring, MD 20910
    Page Author: NWS Internet Services Team
Disclaimer
Information Quality
Credits
Glossary
Privacy Policy
Freedom of Information Act (FOIA)
About Us
Career Opportunities